createdAt,value
2019-03-05T00:01:19.906Z,39.53
2019-03-05T00:03:48.698Z,48.00
2019-03-05T00:06:17.470Z,37.33
2019-03-05T00:08:46.216Z,27.93
2019-03-05T00:11:14.970Z,26.47
2019-03-05T00:13:43.710Z,29.37
2019-03-05T00:16:12.506Z,37.87
2019-03-05T00:18:41.260Z,40.80
2019-03-05T00:21:10.104Z,33.80
2019-03-05T00:23:52.670Z,28.90
2019-03-05T00:26:33.052Z,27.73
2019-03-05T00:29:10.628Z,29.47
2019-03-05T00:31:41.731Z,25.93
2019-03-05T00:34:25.217Z,34.30
2019-03-05T00:36:56.861Z,38.47
2019-03-05T00:39:28.526Z,31.83
2019-03-05T00:42:05.810Z,35.10
2019-03-05T00:44:44.909Z,35.83
2019-03-05T00:47:40.679Z,30.13
2019-03-05T00:50:21.432Z,31.27
2019-03-05T00:53:02.133Z,34.23
2019-03-05T00:55:54.782Z,34.73
2019-03-05T00:58:32.476Z,31.03
2019-03-05T01:01:09.941Z,33.87
2019-03-05T01:03:47.853Z,58.23
2019-03-05T01:06:22.265Z,36.63
2019-03-05T01:08:51.232Z,24.23
2019-03-05T01:11:20.798Z,24.43
2019-03-05T01:13:49.523Z,24.63
2019-03-05T01:16:20.113Z,23.47
2019-03-05T01:18:48.899Z,27.63
2019-03-05T01:21:17.915Z,22.97
2019-03-05T01:23:46.630Z,22.80
2019-03-05T01:26:15.483Z,30.73
2019-03-05T01:28:44.314Z,24.17
2019-03-05T01:31:33.365Z,22.93
2019-03-05T01:34:06.628Z,18.40
2019-03-05T01:36:42.736Z,21.83
2019-03-05T01:39:16.293Z,17.37
2019-03-05T01:41:45.006Z,19.63
2019-03-05T01:44:13.714Z,22.57
2019-03-05T01:46:42.418Z,22.63
2019-03-05T01:49:11.158Z,18.27
2019-03-05T01:51:39.861Z,18.27
2019-03-05T01:54:08.562Z,17.40
2019-03-05T01:56:37.310Z,17.40
2019-03-05T01:59:06.014Z,15.77
2019-03-05T02:01:34.821Z,18.47
2019-03-05T02:04:03.636Z,16.43
2019-03-05T02:06:32.337Z,16.67
2019-03-05T02:09:01.192Z,17.63
2019-03-05T02:11:29.894Z,63.70
2019-03-05T02:13:58.607Z,33.50
2019-03-05T02:16:27.321Z,18.30
2019-03-05T02:19:01.664Z,14.67
2019-03-05T02:21:33.502Z,15.63
2019-03-05T02:24:39.806Z,17.07
2019-03-05T02:27:20.629Z,15.57
2019-03-05T02:29:52.304Z,26.00
2019-03-05T02:32:29.900Z,26.07
2019-03-05T02:35:01.561Z,22.83
2019-03-05T02:37:39.031Z,23.53
2019-03-05T02:40:28.599Z,30.83
2019-03-05T02:43:15.151Z,20.90
2019-03-05T02:45:46.777Z,15.40
2019-03-05T02:48:38.132Z,15.83
2019-03-05T02:51:26.404Z,18.60
2019-03-05T02:54:13.239Z,19.60
2019-03-05T02:57:02.980Z,21.30
2019-03-05T02:59:31.692Z,17.40
2019-03-05T03:02:01.968Z,17.20
2019-03-05T03:04:44.572Z,12.03
2019-03-05T03:07:13.280Z,11.80
2019-03-05T03:09:50.441Z,16.43
2019-03-05T03:12:19.147Z,17.03
2019-03-05T03:14:47.857Z,18.83
2019-03-05T03:17:16.647Z,18.37
2019-03-05T03:19:45.349Z,19.23
2019-03-05T03:22:14.062Z,17.77
2019-03-05T03:24:42.765Z,15.03
2019-03-05T03:27:11.487Z,19.80
2019-03-05T03:29:40.217Z,39.43
2019-03-05T03:32:08.930Z,39.73
2019-03-05T03:34:37.642Z,38.80
2019-03-05T03:37:06.354Z,35.40
2019-03-05T03:39:35.067Z,32.33
2019-03-05T03:42:03.910Z,29.10
2019-03-05T03:44:34.338Z,30.47
2019-03-05T03:47:03.049Z,19.27
2019-03-05T03:49:34.204Z,20.80
2019-03-05T03:52:02.930Z,24.43
2019-03-05T03:54:36.082Z,20.90
2019-03-05T03:57:04.791Z,23.70
2019-03-05T03:59:33.517Z,20.90
2019-03-05T04:02:02.227Z,23.47
2019-03-05T04:04:30.925Z,45.67
2019-03-05T04:06:59.676Z,26.40
2019-03-05T04:09:28.486Z,30.20
2019-03-05T04:11:57.194Z,31.00
2019-03-05T04:14:25.933Z,30.17
2019-03-05T04:16:54.627Z,45.90
2019-03-05T04:19:24.950Z,32.30
2019-03-05T04:21:53.655Z,35.10
2019-03-05T04:24:22.368Z,34.83
2019-03-05T04:26:51.135Z,37.10
2019-03-05T04:29:19.866Z,31.83
2019-03-05T04:31:48.548Z,26.67
2019-03-05T04:34:17.339Z,30.63
2019-03-05T04:36:46.043Z,28.17
2019-03-05T04:39:14.748Z,19.73
2019-03-05T04:41:43.495Z,28.77
2019-03-05T04:44:13.511Z,28.93
2019-03-05T04:46:43.829Z,37.83
2019-03-05T04:49:14.122Z,231.63
2019-03-05T04:51:50.501Z,42.03
2019-03-05T04:54:19.216Z,38.03
2019-03-05T04:56:47.971Z,60.57
2019-03-05T04:59:16.775Z,59.13
2019-03-05T05:01:45.489Z,42.93
2019-03-05T05:04:14.238Z,34.83
2019-03-05T05:06:42.951Z,19.83
2019-03-05T05:09:12.268Z,22.00
2019-03-05T05:11:40.985Z,24.63
2019-03-05T05:14:09.695Z,31.13
2019-03-05T05:16:38.468Z,27.40
2019-03-05T05:19:07.177Z,27.80
2019-03-05T05:21:35.890Z,28.73
2019-03-05T05:24:04.604Z,30.00
2019-03-05T05:26:36.802Z,32.17
2019-03-05T05:29:05.559Z,40.33
2019-03-05T05:31:34.263Z,54.90
2019-03-05T05:34:03.039Z,79.63
2019-03-05T05:36:33.608Z,86.53
2019-03-05T05:39:02.316Z,78.97
2019-03-05T05:41:31.067Z,72.53
2019-03-05T05:43:59.788Z,71.33
2019-03-05T05:46:28.499Z,74.13
2019-03-05T05:48:57.257Z,54.33
2019-03-05T05:51:25.968Z,102.53
2019-03-05T05:53:54.680Z,70.77
2019-03-05T05:56:23.462Z,101.27
2019-03-05T05:58:52.175Z,101.00
2019-03-05T06:01:20.934Z,117.20
2019-03-05T06:03:49.648Z,132.33
2019-03-05T06:06:18.435Z,178.00
2019-03-05T06:08:47.171Z,184.23
2019-03-05T06:11:15.887Z,125.77
2019-03-05T06:13:44.659Z,119.77
2019-03-05T06:16:13.373Z,124.43
2019-03-05T06:18:42.084Z,108.10
2019-03-05T06:21:10.832Z,99.97
2019-03-05T06:23:39.541Z,122.57
2019-03-05T06:26:08.816Z,143.40
2019-03-05T06:28:37.657Z,80.47
2019-03-05T06:31:06.366Z,69.47
2019-03-05T06:33:35.112Z,62.60
2019-03-05T06:36:03.827Z,69.60
2019-03-05T06:38:32.536Z,69.50
2019-03-05T06:41:01.287Z,71.60
2019-03-05T06:43:30.001Z,97.17
2019-03-05T06:45:58.706Z,72.17
2019-03-05T06:48:27.482Z,85.90
2019-03-05T06:50:56.190Z,121.37
2019-03-05T06:53:24.900Z,93.00
2019-03-05T06:55:53.654Z,65.23
2019-03-05T06:58:22.355Z,61.20
2019-03-05T07:00:51.062Z,67.40
2019-03-05T07:03:19.781Z,58.93
2019-03-05T07:06:24.712Z,69.83
2019-03-05T07:08:56.329Z,75.27
2019-03-05T07:11:55.252Z,75.23
2019-03-05T07:14:32.494Z,80.27
2019-03-05T07:17:09.787Z,71.93
2019-03-05T07:19:43.930Z,78.00
2019-03-05T07:22:21.173Z,80.20
2019-03-05T07:24:49.897Z,90.27
2019-03-05T07:27:24.312Z,149.30
2019-03-05T07:29:54.074Z,123.27
2019-03-05T07:32:22.830Z,111.93
2019-03-05T07:34:52.309Z,99.00
2019-03-05T07:37:21.019Z,229.67
2019-03-05T07:39:49.739Z,118.87
2019-03-05T07:42:18.492Z,97.67
2019-03-05T07:44:47.199Z,82.63
2019-03-05T07:47:15.911Z,94.37
2019-03-05T07:49:44.617Z,76.63
2019-03-05T07:52:13.338Z,56.93
2019-03-05T07:54:42.059Z,60.93
2019-03-05T07:57:10.786Z,41.07
2019-03-05T07:59:39.531Z,41.10
2019-03-05T08:02:08.251Z,34.80
2019-03-05T08:04:36.989Z,46.60
2019-03-05T08:07:05.714Z,35.40
2019-03-05T08:09:36.034Z,43.87
2019-03-05T08:12:16.980Z,35.13
2019-03-05T08:14:57.457Z,42.07
2019-03-05T08:17:26.173Z,41.33
2019-03-05T08:19:54.894Z,36.17
2019-03-05T08:22:23.620Z,41.27
2019-03-05T08:24:52.336Z,38.00
2019-03-05T08:27:21.056Z,37.60
2019-03-05T08:29:49.769Z,40.63
2019-03-05T08:32:18.496Z,37.17
2019-03-05T08:34:47.207Z,35.43
2019-03-05T08:37:15.931Z,39.53
2019-03-05T08:39:44.688Z,34.20
2019-03-05T08:42:13.404Z,27.90
2019-03-05T08:44:49.957Z,21.63
2019-03-05T08:47:12.556Z,18.87
2019-03-05T08:49:41.270Z,16.73
2019-03-05T08:52:10.017Z,15.67
2019-03-05T08:54:38.744Z,17.97
2019-03-05T08:57:07.452Z,10.63
2019-03-05T08:59:36.175Z,14.63
2019-03-05T09:02:04.880Z,12.87
2019-03-05T09:04:33.782Z,21.83
2019-03-05T09:07:02.500Z,14.50
2019-03-05T09:09:31.216Z,18.47
2019-03-05T09:12:00.072Z,20.03
2019-03-05T09:14:28.782Z,18.67
2019-03-05T09:16:57.496Z,16.83
2019-03-05T09:19:26.246Z,19.43
2019-03-05T09:21:54.963Z,21.13
2019-03-05T09:24:23.668Z,17.37
2019-03-05T09:26:52.455Z,21.27
2019-03-05T09:29:21.138Z,17.10
2019-03-05T09:31:50.164Z,11.20
2019-03-05T09:34:18.873Z,14.00
2019-03-05T09:36:51.240Z,11.43
2019-03-05T09:39:18.025Z,19.83
2019-03-05T09:41:46.742Z,13.93
2019-03-05T09:44:15.498Z,15.77
2019-03-05T09:46:44.209Z,16.50
2019-03-05T09:49:12.934Z,19.23
2019-03-05T09:51:41.688Z,12.90
2019-03-05T09:54:10.413Z,18.13
2019-03-05T09:56:39.114Z,13.33
2019-03-05T09:59:07.849Z,18.13
2019-03-05T10:01:36.771Z,14.90
2019-03-05T10:04:05.624Z,13.83
2019-03-05T10:06:34.330Z,15.10
2019-03-05T10:09:04.889Z,20.93
2019-03-05T10:11:35.111Z,14.73
2019-03-05T10:14:03.831Z,16.77
2019-03-05T10:16:33.838Z,10.80
2019-03-05T10:19:02.563Z,15.73
2019-03-05T10:21:31.274Z,16.70
2019-03-05T10:24:10.036Z,23.23
2019-03-05T10:26:30.426Z,14.73
2019-03-05T10:28:59.174Z,12.67
2019-03-05T10:31:27.888Z,12.27
2019-03-05T10:33:56.585Z,11.13
2019-03-05T10:36:25.332Z,14.13
2019-03-05T10:38:57.602Z,9.40
2019-03-05T10:41:25.040Z,10.67
2019-03-05T10:43:53.756Z,8.90
2019-03-05T10:46:22.473Z,12.03
2019-03-05T10:48:51.232Z,9.67
2019-03-05T10:51:19.935Z,9.10
2019-03-05T10:53:48.646Z,10.27
2019-03-05T10:56:17.856Z,9.17
2019-03-05T10:58:46.565Z,13.10
2019-03-05T11:01:15.290Z,18.50
2019-03-05T11:03:44.004Z,18.00
2019-03-05T11:06:12.761Z,18.37
2019-03-05T11:08:41.479Z,34.33
2019-03-05T11:11:13.733Z,13.27
2019-03-05T11:13:40.677Z,15.93
2019-03-05T11:16:09.508Z,12.27
2019-03-05T11:18:38.630Z,7.03
2019-03-05T11:21:07.543Z,8.50
2019-03-05T11:23:36.251Z,14.17
2019-03-05T11:26:05.214Z,9.27
2019-03-05T11:28:33.930Z,9.60
2019-03-05T11:31:02.637Z,15.00
2019-03-05T11:33:33.895Z,11.63
2019-03-05T11:36:02.602Z,11.23
2019-03-05T11:38:34.008Z,19.17
2019-03-05T11:41:02.915Z,17.77
2019-03-05T11:43:31.625Z,14.87
2019-03-05T11:46:00.450Z,11.70
2019-03-05T11:48:29.158Z,10.00
2019-03-05T11:50:57.910Z,8.20
2019-03-05T11:53:26.626Z,12.70
2019-03-05T11:55:55.338Z,16.00
2019-03-05T11:58:24.051Z,17.33
2019-03-05T12:01:06.354Z,12.13
2019-03-05T12:03:36.537Z,14.57
2019-03-05T12:06:05.347Z,10.43
2019-03-05T12:08:34.063Z,10.20
2019-03-05T12:11:02.783Z,14.83
2019-03-05T12:13:31.486Z,7.47
2019-03-05T12:16:00.341Z,12.47
2019-03-05T12:18:29.042Z,9.00
2019-03-05T12:20:57.748Z,8.17
2019-03-05T12:23:26.523Z,12.30
2019-03-05T12:25:55.227Z,9.73
2019-03-05T12:28:23.935Z,20.00
2019-03-05T12:30:53.007Z,12.83
2019-03-05T12:33:21.724Z,7.97
2019-03-05T12:35:50.475Z,19.37
2019-03-05T12:38:19.190Z,21.33
2019-03-05T12:40:47.913Z,13.57
2019-03-05T12:43:16.674Z,7.83
2019-03-05T12:45:45.377Z,8.40
2019-03-05T12:48:14.081Z,11.23
2019-03-05T12:50:42.845Z,8.10
2019-03-05T12:53:12.061Z,27.70
2019-03-05T12:55:40.776Z,12.90
2019-03-05T12:58:09.502Z,10.97
2019-03-05T13:00:38.563Z,13.97
2019-03-05T13:03:07.326Z,12.30
2019-03-05T13:05:36.034Z,13.70
2019-03-05T13:08:04.745Z,8.60
2019-03-05T13:10:36.111Z,7.60
2019-03-05T13:13:04.827Z,14.53
2019-03-05T13:15:38.510Z,12.33
2019-03-05T13:18:07.418Z,12.97
2019-03-05T13:20:36.123Z,11.37
2019-03-05T13:23:09.215Z,12.10
2019-03-05T13:25:38.032Z,9.73
2019-03-05T13:28:05.815Z,9.17
2019-03-05T13:30:34.619Z,12.80
2019-03-05T13:33:03.368Z,10.80
2019-03-05T13:35:32.389Z,9.03
2019-03-05T13:38:07.668Z,9.03
2019-03-05T13:40:38.255Z,10.70
2019-03-05T13:43:05.985Z,12.93
2019-03-05T13:45:34.705Z,11.23
2019-03-05T13:48:14.869Z,10.70
2019-03-05T13:51:01.249Z,14.20
2019-03-05T13:54:00.043Z,10.10
2019-03-05T13:56:42.228Z,9.97
2019-03-05T13:59:34.719Z,10.00
2019-03-05T14:02:04.052Z,8.73
2019-03-05T14:04:47.492Z,10.10
2019-03-05T14:07:24.766Z,9.30
2019-03-05T14:09:53.531Z,10.50
2019-03-05T14:12:22.321Z,10.90
2019-03-05T14:14:51.049Z,11.27
2019-03-05T14:17:21.342Z,10.90
2019-03-05T14:19:50.056Z,12.67
2019-03-05T14:22:18.801Z,14.20
2019-03-05T14:24:47.538Z,12.47
2019-03-05T14:27:16.317Z,15.03
2019-03-05T14:29:45.119Z,11.10
2019-03-05T14:32:13.949Z,10.03
2019-03-05T14:34:44.191Z,22.40
2019-03-05T14:37:12.898Z,15.60
2019-03-05T14:39:41.615Z,11.50
2019-03-05T14:42:11.678Z,11.07
2019-03-05T14:44:41.690Z,11.53
2019-03-05T14:47:10.419Z,20.13
2019-03-05T14:49:39.186Z,16.10
2019-03-05T14:52:08.098Z,20.33
2019-03-05T14:54:36.827Z,20.43
2019-03-05T14:57:05.558Z,24.20
2019-03-05T14:59:34.247Z,18.77
2019-03-05T15:02:03.005Z,17.80
2019-03-05T15:04:31.720Z,17.40
2019-03-05T15:07:00.464Z,16.93
2019-03-05T15:09:29.364Z,32.53
2019-03-05T15:11:58.106Z,20.47
2019-03-05T15:14:26.799Z,24.17
2019-03-05T15:16:55.543Z,29.87
2019-03-05T15:19:24.296Z,31.23
2019-03-05T15:21:53.080Z,29.40
2019-03-05T15:24:21.793Z,33.33
2019-03-05T15:26:50.471Z,51.53
2019-03-05T15:29:19.234Z,44.00
2019-03-05T15:31:48.072Z,47.73
2019-03-05T15:34:16.918Z,71.00
2019-03-05T15:36:45.703Z,97.60
2019-03-05T15:39:14.492Z,123.43
2019-03-05T15:41:46.034Z,119.77
2019-03-05T15:44:13.743Z,70.87
2019-03-05T15:46:42.424Z,102.13
2019-03-05T15:49:11.148Z,72.63
2019-03-05T15:51:39.982Z,83.73
2019-03-05T15:54:08.815Z,103.63
2019-03-05T15:56:37.703Z,70.60
2019-03-05T15:59:06.413Z,83.70
2019-03-05T16:01:35.138Z,70.00
2019-03-05T16:04:03.866Z,69.90
2019-03-05T16:06:35.219Z,96.57
2019-03-05T16:09:05.521Z,96.87
2019-03-05T16:11:35.141Z,91.73
2019-03-05T16:14:04.044Z,69.17
2019-03-05T16:16:32.805Z,98.23
2019-03-05T16:19:01.567Z,98.23
2019-03-05T16:21:30.281Z,67.30
2019-03-05T16:24:01.686Z,65.37
2019-03-05T16:26:29.470Z,83.03
2019-03-05T16:28:58.195Z,145.37
2019-03-05T16:31:35.479Z,140.57
2019-03-05T16:34:14.815Z,106.53
2019-03-05T16:36:51.057Z,52.03
2019-03-05T16:39:21.713Z,53.23
2019-03-05T16:41:53.399Z,51.70
2019-03-05T16:44:36.310Z,83.27
2019-03-05T16:47:06.685Z,70.77
2019-03-05T16:49:39.718Z,97.50
2019-03-05T16:52:10.025Z,72.73
2019-03-05T16:54:46.334Z,134.43
2019-03-05T16:57:19.424Z,108.00
2019-03-05T16:59:55.768Z,185.20
2019-03-05T17:02:37.530Z,146.80
2019-03-05T17:05:27.172Z,225.90
2019-03-05T17:08:03.409Z,158.97
2019-03-05T17:10:42.939Z,105.23
2019-03-05T17:13:20.439Z,130.37
2019-03-05T17:15:49.166Z,71.07
2019-03-05T17:18:17.928Z,111.10
2019-03-05T17:20:46.654Z,119.27
2019-03-05T17:23:15.394Z,154.67
2019-03-05T17:25:44.156Z,103.23
2019-03-05T17:28:12.912Z,85.17
2019-03-05T17:30:41.805Z,62.17
2019-03-05T17:33:10.528Z,39.23
2019-03-05T17:35:39.252Z,57.23
2019-03-05T17:38:08.012Z,121.40
2019-03-05T17:40:36.728Z,58.20
2019-03-05T17:43:05.549Z,83.00
2019-03-05T17:45:34.403Z,88.33
2019-03-05T17:48:03.117Z,152.57
2019-03-05T17:50:31.834Z,133.63
2019-03-05T17:53:00.559Z,163.50
2019-03-05T17:55:29.380Z,74.63
2019-03-05T17:57:58.431Z,91.43
2019-03-05T18:00:34.726Z,85.50
2019-03-05T18:03:03.480Z,71.77
2019-03-05T18:05:32.192Z,67.57
2019-03-05T18:08:00.904Z,60.33
2019-03-05T18:10:30.135Z,59.77
2019-03-05T18:12:58.862Z,45.73
2019-03-05T18:15:28.837Z,34.60
2019-03-05T18:17:57.698Z,20.20
2019-03-05T18:20:26.452Z,20.67
2019-03-05T18:22:55.171Z,16.43
2019-03-05T18:25:30.168Z,20.20
2019-03-05T18:28:03.854Z,19.33
2019-03-05T18:30:35.704Z,19.13
2019-03-05T18:33:04.477Z,20.17
2019-03-05T18:35:33.229Z,27.73
2019-03-05T18:38:01.947Z,32.63
2019-03-05T18:40:30.687Z,53.10
2019-03-05T18:42:59.529Z,52.20
2019-03-05T18:45:34.335Z,55.77
2019-03-05T18:48:03.049Z,79.87
2019-03-05T18:50:31.797Z,91.17
2019-03-05T18:53:02.396Z,64.10
2019-03-05T18:55:31.398Z,63.63
2019-03-05T18:58:00.168Z,88.63
2019-03-05T19:00:31.060Z,76.67
2019-03-05T19:03:07.697Z,73.43
2019-03-05T19:05:36.727Z,59.77
2019-03-05T19:08:05.538Z,40.13
2019-03-05T19:10:34.575Z,37.30
2019-03-05T19:13:03.296Z,40.80
2019-03-05T19:15:32.210Z,30.37
2019-03-05T19:18:01.180Z,28.00
2019-03-05T19:20:30.912Z,27.77
2019-03-05T19:23:00.026Z,31.27
2019-03-05T19:25:30.235Z,30.03
2019-03-05T19:27:58.956Z,27.03
2019-03-05T19:30:30.543Z,25.67
2019-03-05T19:32:59.334Z,36.57
2019-03-05T19:35:28.062Z,30.27
2019-03-05T19:37:56.815Z,39.43
2019-03-05T19:40:30.753Z,49.13
2019-03-05T19:42:59.726Z,63.53
2019-03-05T19:45:28.513Z,51.87
2019-03-05T19:47:57.231Z,57.30
2019-03-05T19:50:26.104Z,59.70
2019-03-05T19:52:54.834Z,65.83
2019-03-05T19:55:30.556Z,46.03
2019-03-05T19:58:09.314Z,45.47
2019-03-05T20:00:41.717Z,43.37
2019-03-05T20:03:10.435Z,43.90
2019-03-05T20:05:40.181Z,46.00
2019-03-05T20:08:08.957Z,45.50
2019-03-05T20:10:39.626Z,48.63
2019-03-05T20:13:08.341Z,34.07
2019-03-05T20:15:37.060Z,37.97
2019-03-05T20:18:07.377Z,41.70
2019-03-05T20:20:36.248Z,40.63
2019-03-05T20:23:05.358Z,40.70
2019-03-05T20:25:34.413Z,37.40
2019-03-05T20:28:03.134Z,39.13
2019-03-05T20:30:34.543Z,35.87
2019-03-05T20:33:03.257Z,45.87
2019-03-05T20:35:31.978Z,48.27
2019-03-05T20:38:00.711Z,60.60
2019-03-05T20:40:30.558Z,107.40
2019-03-05T20:43:00.040Z,68.80
2019-03-05T20:45:30.670Z,58.03
2019-03-05T20:47:59.590Z,47.30
2019-03-05T20:50:28.333Z,50.03
2019-03-05T20:52:57.154Z,56.93
2019-03-05T20:55:27.216Z,57.90
2019-03-05T20:57:55.987Z,41.80
2019-03-05T21:00:27.083Z,52.00
2019-03-05T21:02:58.399Z,46.80
2019-03-05T21:05:29.721Z,46.73
2019-03-05T21:07:58.434Z,73.40
2019-03-05T21:10:27.214Z,57.10
2019-03-05T21:12:56.127Z,50.03
2019-03-05T21:15:25.020Z,54.87
2019-03-05T21:17:55.289Z,59.40
2019-03-05T21:20:24.002Z,72.93
2019-03-05T21:22:52.724Z,64.67
2019-03-05T21:25:21.786Z,52.53
2019-03-05T21:27:50.498Z,40.53
2019-03-05T21:30:24.429Z,34.83
2019-03-05T21:32:53.161Z,39.20
2019-03-05T21:35:21.879Z,37.10
2019-03-05T21:37:50.642Z,36.93
2019-03-05T21:40:21.273Z,30.40
2019-03-05T21:42:49.991Z,35.23
2019-03-05T21:45:28.188Z,32.37
2019-03-05T21:47:56.905Z,33.70
2019-03-05T21:50:25.671Z,33.83
2019-03-05T21:52:54.392Z,35.87
2019-03-05T21:55:23.103Z,32.57
2019-03-05T21:57:51.843Z,30.40
2019-03-05T22:00:31.738Z,34.63
2019-03-05T22:03:01.808Z,35.60
2019-03-05T22:05:30.829Z,37.13
2019-03-05T22:07:59.545Z,33.93
2019-03-05T22:10:28.265Z,35.40
2019-03-05T22:12:56.975Z,34.97
2019-03-05T22:15:27.543Z,32.57
2019-03-05T22:17:56.296Z,29.33
2019-03-05T22:20:25.070Z,33.30
2019-03-05T22:22:53.784Z,30.47
2019-03-05T22:25:23.490Z,62.40
2019-03-05T22:27:52.234Z,47.87
2019-03-05T22:30:29.699Z,53.83
2019-03-05T22:32:58.456Z,89.93
2019-03-05T22:35:27.167Z,52.23
2019-03-05T22:37:55.887Z,36.80
2019-03-05T22:40:25.610Z,35.10
2019-03-05T22:42:54.326Z,33.40
2019-03-05T22:45:25.443Z,33.27
2019-03-05T22:47:54.852Z,34.20
2019-03-05T22:50:23.566Z,31.73
2019-03-05T22:52:52.283Z,31.53
2019-03-05T22:55:21.000Z,26.53
2019-03-05T22:57:49.781Z,27.50
2019-03-05T23:00:25.885Z,32.40
2019-03-05T23:02:54.747Z,27.23
2019-03-05T23:05:23.969Z,27.37
2019-03-05T23:07:52.680Z,29.27
2019-03-05T23:10:21.579Z,32.43
2019-03-05T23:12:50.288Z,28.80
2019-03-05T23:15:19.343Z,26.40
2019-03-05T23:17:48.060Z,24.60
2019-03-05T23:20:18.337Z,27.17
2019-03-05T23:22:47.541Z,30.77
2019-03-05T23:25:18.053Z,32.57
2019-03-05T23:27:46.877Z,29.80
2019-03-05T23:30:18.339Z,21.90
2019-03-05T23:32:49.919Z,20.80
2019-03-05T23:35:18.843Z,18.27
2019-03-05T23:37:47.650Z,15.27
2019-03-05T23:40:17.297Z,14.70
2019-03-05T23:42:46.214Z,18.30
2019-03-05T23:45:18.886Z,17.53
2019-03-05T23:47:47.705Z,16.50
2019-03-05T23:50:17.414Z,14.53
2019-03-05T23:52:46.204Z,15.03
2019-03-05T23:55:15.402Z,17.70
2019-03-05T23:57:44.288Z,15.67
